Time;durP1;ratioP1;P1;durP2;ratioP2;P2;SDS_P1;SDS_P2;PMS_P1;PMS_P2;Temp;Humidity;BMP_temperature;BMP_pressure;BME280_temperature;BME280_humidity;BME280_pressure;Samples;Min_cycle;Max_cycle;Signal;HPM_P1;HPM_P2
2024/03/13 00:02:22;;;;;;;21.27;14.10;;;6.00;99.90;;;;;;5004930;28;20026;-47
2024/03/13 00:04:48;;;;;;;21.67;13.85;;;6.00;99.90;;;;;;5005628;28;20108;-46
2024/03/13 00:07:15;;;;;;;22.60;13.70;;;5.90;99.90;;;;;;5003990;28;20061;-47
2024/03/13 00:09:45;;;;;;;22.92;14.60;;;5.90;99.90;;;;;;5004001;28;20033;-45
2024/03/13 00:12:14;;;;;;;22.95;13.48;;;5.80;99.90;;;;;;4999767;28;20452;-45
2024/03/13 00:14:40;;;;;;;24.25;14.30;;;5.80;99.90;;;;;;5002117;28;20030;-49
2024/03/13 00:17:06;;;;;;;21.60;14.45;;;5.70;99.90;;;;;;5003728;28;20033;-46
2024/03/13 00:19:33;;;;;;;27.27;15.48;;;5.70;99.90;;;;;;5003823;28;20103;-48
2024/03/13 00:22:00;;;;;;;23.23;14.90;;;5.70;99.90;;;;;;5004709;28;20088;-46
2024/03/13 00:24:27;;;;;;;20.95;13.15;;;5.60;99.90;;;;;;5001426;28;20061;-48
2024/03/13 00:26:57;;;;;;;22.42;14.35;;;5.60;99.90;;;;;;5003257;28;20443;-45
2024/03/13 00:29:25;;;;;;;23.30;15.30;;;5.50;99.90;;;;;;5006065;28;20130;-47
2024/03/13 00:31:51;;;;;;;21.35;13.50;;;5.50;99.90;;;;;;5005409;28;20061;-50
2024/03/13 00:34:18;;;;;;;19.48;13.07;;;5.40;99.90;;;;;;4999702;28;20112;-46
2024/03/13 00:36:43;;;;;;;21.05;13.73;;;5.40;99.90;;;;;;5003886;28;20602;-51
2024/03/13 00:39:10;;;;;;;22.58;13.70;;;5.40;99.90;;;;;;5001003;28;20041;-45
2024/03/13 00:41:36;;;;;;;25.08;14.30;;;5.30;99.90;;;;;;5002435;28;20752;-44
2024/03/13 00:44:03;;;;;;;25.15;14.48;;;5.30;99.90;;;;;;5005063;28;20141;-48
2024/03/13 00:46:28;;;;;;;25.63;14.43;;;5.20;99.90;;;;;;5004777;28;20038;-46
2024/03/13 00:48:54;;;;;;;24.42;14.55;;;5.20;99.90;;;;;;5002911;28;20048;-45
2024/03/13 00:51:20;;;;;;;22.67;14.75;;;5.20;99.90;;;;;;5003538;28;20147;-45
2024/03/13 00:53:46;;;;;;;21.50;13.15;;;5.10;99.90;;;;;;5001334;28;20096;-47
2024/03/13 00:56:11;;;;;;;21.20;13.20;;;5.10;99.90;;;;;;5003488;28;20068;-48
2024/03/13 00:58:37;;;;;;;25.35;14.52;;;5.10;99.90;;;;;;5004380;28;20057;-48
2024/03/13 01:01:03;;;;;;;22.35;13.68;;;5.00;99.90;;;;;;5002037;28;20406;-45
2024/03/13 01:03:29;;;;;;;22.08;14.55;;;5.00;99.90;;;;;;5004031;28;20145;-45
2024/03/13 01:05:56;;;;;;;21.65;14.13;;;4.90;99.90;;;;;;5002223;28;20045;-49
2024/03/13 01:08:22;;;;;;;23.20;14.10;;;4.90;99.90;;;;;;5005053;28;20026;-47
2024/03/13 01:10:50;;;;;;;24.27;13.90;;;4.80;99.90;;;;;;5003502;28;20053;-47
2024/03/13 01:13:18;;;;;;;23.77;13.55;;;4.80;99.90;;;;;;5000915;28;20450;-49
2024/03/13 01:15:44;;;;;;;27.90;15.10;;;4.80;99.90;;;;;;4998685;28;20035;-45
2024/03/13 01:18:10;;;;;;;17.45;11.70;;;4.70;99.90;;;;;;5002365;28;20033;-45
2024/03/13 01:20:36;;;;;;;23.67;13.30;;;4.70;99.90;;;;;;5001325;28;20030;-47
2024/03/13 01:23:01;;;;;;;21.08;12.93;;;4.60;99.90;;;;;;5004601;28;20037;-45
2024/03/13 01:25:27;;;;;;;21.25;12.52;;;4.50;99.90;;;;;;5003224;28;20022;-45
2024/03/13 01:27:53;;;;;;;21.08;13.02;;;4.50;99.90;;;;;;5004239;28;20036;-44
2024/03/13 01:30:21;;;;;;;19.38;12.35;;;4.50;99.90;;;;;;5003404;28;20030;-49
2024/03/13 01:32:49;;;;;;;21.33;13.13;;;4.40;99.90;;;;;;5001874;28;20026;-45
2024/03/13 01:35:17;;;;;;;23.77;14.10;;;4.40;99.90;;;;;;5006325;28;20037;-46
2024/03/13 01:37:56;;;;;;;21.52;13.60;;;4.40;99.90;;;;;;5001782;28;20635;-45
2024/03/13 01:40:26;;;;;;;27.13;15.07;;;4.40;99.90;;;;;;5001452;28;20026;-44
2024/03/13 01:56:38;;;;;;;23.60;15.73;;;4.30;99.90;;;;;;5001196;28;20053;-44
2024/03/13 01:59:20;;;;;;;24.80;16.15;;;4.30;99.90;;;;;;5004795;28;20071;-45
2024/03/13 02:04:30;;;;;;;24.80;15.55;;;4.30;99.90;;;;;;5001552;28;20048;-44
2024/03/13 02:06:56;;;;;;;24.10;14.18;;;4.20;99.90;;;;;;5000273;28;20648;-45
2024/03/13 02:09:23;;;;;;;23.17;14.07;;;4.20;99.90;;;;;;5000353;28;20176;-45
2024/03/13 02:11:49;;;;;;;26.88;15.00;;;4.10;99.90;;;;;;5005491;28;20037;-47
2024/03/13 02:14:15;;;;;;;22.98;14.35;;;4.10;99.90;;;;;;5005987;28;20621;-48
2024/03/13 02:16:41;;;;;;;26.10;15.05;;;4.10;99.90;;;;;;5005856;28;20037;-47
2024/03/13 02:19:07;;;;;;;25.38;14.52;;;4.00;99.90;;;;;;5008599;28;20036;-46
2024/03/13 02:21:35;;;;;;;23.92;13.90;;;3.90;99.90;;;;;;5008843;28;20508;-47
2024/03/13 02:24:01;;;;;;;27.05;14.18;;;3.90;99.90;;;;;;5002813;28;20058;-45
2024/03/13 02:26:26;;;;;;;24.00;14.75;;;3.90;99.90;;;;;;5004781;28;20081;-45
2024/03/13 02:28:52;;;;;;;30.20;16.13;;;3.80;99.90;;;;;;5005766;28;20023;-45
2024/03/13 02:31:17;;;;;;;24.85;14.88;;;3.80;99.90;;;;;;5005879;28;20471;-45
2024/03/13 02:33:43;;;;;;;22.85;13.25;;;3.80;99.90;;;;;;4999729;28;20027;-44
2024/03/13 02:36:09;;;;;;;26.40;14.68;;;3.70;99.90;;;;;;5002390;28;20115;-45
2024/03/13 02:38:35;;;;;;;24.90;15.68;;;3.70;99.90;;;;;;5006028;28;20088;-45
2024/03/13 02:41:00;;;;;;;23.08;15.50;;;3.70;99.90;;;;;;5003108;28;20046;-47
2024/03/13 02:43:26;;;;;;;27.80;16.33;;;3.70;99.90;;;;;;5003420;28;20037;-45
2024/03/13 02:45:51;;;;;;;29.92;16.50;;;3.80;99.90;;;;;;4997728;28;20097;-46
2024/03/13 02:48:17;;;;;;;31.40;17.75;;;3.80;99.90;;;;;;4997731;28;20030;-46
2024/03/13 02:50:45;;;;;;;26.65;16.38;;;3.80;99.90;;;;;;5002978;28;20552;-45
2024/03/13 02:53:10;;;;;;;26.30;15.73;;;3.80;99.90;;;;;;4998020;28;20030;-44
2024/03/13 02:55:37;;;;;;;26.00;16.13;;;3.80;99.90;;;;;;5002857;28;20718;-46
2024/03/13 02:58:03;;;;;;;27.75;16.45;;;3.80;99.90;;;;;;5001067;28;20041;-47
2024/03/13 03:00:29;;;;;;;27.48;15.73;;;3.80;99.90;;;;;;5000512;28;20134;-46
2024/03/13 03:02:56;;;;;;;27.88;16.65;;;3.80;99.90;;;;;;5004251;28;20482;-48
2024/03/13 03:05:22;;;;;;;29.25;17.10;;;3.80;99.90;;;;;;5001967;28;20038;-45
2024/03/13 03:07:47;;;;;;;30.17;16.85;;;3.70;99.90;;;;;;5005067;28;20050;-46
2024/03/13 03:10:13;;;;;;;31.25;17.08;;;3.70;99.90;;;;;;5006319;28;20061;-44
2024/03/13 03:12:43;;;;;;;30.48;15.93;;;3.70;99.90;;;;;;5005782;28;20085;-46
2024/03/13 03:15:09;;;;;;;29.30;16.92;;;3.70;99.90;;;;;;5001937;28;20033;-46
2024/03/13 03:17:35;;;;;;;28.63;15.60;;;3.60;99.90;;;;;;5003030;28;20042;-45
2024/03/13 03:20:01;;;;;;;28.10;15.52;;;3.60;99.90;;;;;;5005374;28;20030;-47
2024/03/13 03:22:26;;;;;;;26.35;16.08;;;3.60;99.90;;;;;;4998928;28;20114;-45
2024/03/13 03:24:52;;;;;;;28.63;16.63;;;3.60;99.90;;;;;;5000617;28;20030;-44
2024/03/13 03:27:18;;;;;;;23.58;16.17;;;3.60;99.90;;;;;;4999007;28;20109;-45
2024/03/13 03:29:44;;;;;;;27.70;17.20;;;3.50;99.90;;;;;;5002615;28;20112;-46
2024/03/13 03:32:09;;;;;;;29.55;17.58;;;3.60;99.90;;;;;;5004309;28;20105;-45
2024/03/13 03:34:35;;;;;;;33.97;17.23;;;3.60;99.90;;;;;;5002998;28;20113;-46
2024/03/13 03:37:01;;;;;;;28.15;17.88;;;3.60;99.90;;;;;;5004826;28;20065;-44
2024/03/13 03:39:29;;;;;;;33.72;17.15;;;3.60;99.90;;;;;;5000908;28;20080;-47
2024/03/13 03:41:56;;;;;;;34.17;18.25;;;3.60;99.90;;;;;;5001292;28;20101;-47
2024/03/13 03:44:21;;;;;;;29.60;17.42;;;3.60;99.90;;;;;;5001358;28;20037;-46
2024/03/13 03:46:48;;;;;;;32.05;18.25;;;3.60;99.90;;;;;;5002277;28;20023;-47
2024/03/13 03:49:13;;;;;;;30.80;17.77;;;3.50;99.90;;;;;;5008571;28;20088;-47
2024/03/13 03:51:39;;;;;;;32.40;17.05;;;3.50;99.90;;;;;;5003396;28;20105;-49
2024/03/13 03:54:05;;;;;;;30.95;17.75;;;3.40;99.90;;;;;;5006742;28;20034;-48
2024/03/13 03:56:32;;;;;;;27.25;18.13;;;3.40;99.90;;;;;;5003660;28;20137;-47
2024/03/13 03:58:58;;;;;;;29.73;16.08;;;3.30;99.90;;;;;;5005219;28;20502;-47
2024/03/13 04:01:26;;;;;;;29.58;16.48;;;3.30;99.90;;;;;;5004136;28;20038;-45
2024/03/13 04:03:55;;;;;;;27.70;16.65;;;3.30;99.90;;;;;;5004906;28;20037;-46
2024/03/13 04:06:21;;;;;;;29.35;15.20;;;3.20;99.90;;;;;;5002167;28;20155;-47
2024/03/13 04:08:47;;;;;;;26.92;16.02;;;3.20;99.90;;;;;;5001969;28;20097;-46
2024/03/13 04:11:13;;;;;;;24.27;15.13;;;3.20;99.90;;;;;;5005006;28;20056;-46
2024/03/13 04:13:42;;;;;;;29.08;16.75;;;3.10;99.90;;;;;;5004860;28;20034;-45
2024/03/13 04:16:10;;;;;;;25.85;14.65;;;3.10;99.90;;;;;;5002055;28;20087;-46
2024/03/13 04:18:37;;;;;;;33.80;18.83;;;3.00;99.90;;;;;;5001482;28;20038;-45
2024/03/13 04:21:03;;;;;;;25.90;15.57;;;3.00;99.90;;;;;;5005719;28;20172;-48
2024/03/13 04:23:29;;;;;;;28.67;17.25;;;3.00;99.90;;;;;;5008417;28;20046;-46
2024/03/13 04:25:55;;;;;;;28.80;18.42;;;3.00;99.90;;;;;;5002147;28;20550;-46
2024/03/13 04:28:20;;;;;;;31.77;18.10;;;2.90;99.90;;;;;;5002490;28;20172;-47
2024/03/13 04:30:46;;;;;;;30.17;17.73;;;3.00;99.90;;;;;;5003081;28;20022;-50
2024/03/13 04:33:12;;;;;;;32.25;18.27;;;2.90;99.90;;;;;;5004943;28;20667;-44
2024/03/13 04:35:38;;;;;;;29.90;18.98;;;2.90;99.90;;;;;;5020610;22;20529;-52
2024/03/13 04:38:04;;;;;;;33.35;19.25;;;2.90;99.90;;;;;;4981330;28;20026;-51
2024/03/13 04:40:30;;;;;;;28.55;18.65;;;3.00;99.90;;;;;;4984879;28;20026;-51
2024/03/13 04:42:57;;;;;;;26.40;17.63;;;3.00;99.90;;;;;;4982384;28;20722;-52
2024/03/13 04:45:24;;;;;;;33.00;18.38;;;3.00;99.90;;;;;;4979312;28;20472;-50
2024/03/13 04:47:50;;;;;;;31.17;17.67;;;3.00;99.90;;;;;;4963343;28;20045;-49
2024/03/13 04:50:16;;;;;;;30.92;18.50;;;3.00;99.90;;;;;;4963953;28;20043;-52
2024/03/13 04:52:41;;;;;;;27.45;17.15;;;2.90;99.90;;;;;;4966210;28;20488;-52
2024/03/13 04:55:07;;;;;;;36.75;18.83;;;2.90;99.90;;;;;;4964459;28;20058;-52
2024/03/13 04:57:33;;;;;;;33.13;19.48;;;2.90;99.90;;;;;;4964583;28;20034;-52
2024/03/13 04:59:59;;;;;;;33.63;19.38;;;2.90;99.90;;;;;;4966815;28;20030;-51
2024/03/13 05:02:26;;;;;;;34.17;17.85;;;2.90;99.90;;;;;;4963464;28;20031;-52
2024/03/13 05:04:52;;;;;;;30.50;18.05;;;2.90;99.90;;;;;;4964265;28;20039;-52
2024/03/13 05:07:18;;;;;;;31.70;19.70;;;2.90;99.90;;;;;;4962979;28;20041;-51
2024/03/13 05:09:44;;;;;;;33.33;20.10;;;2.90;99.90;;;;;;4959504;28;20082;-50
2024/03/13 05:12:12;;;;;;;34.83;19.33;;;2.90;99.90;;;;;;4963066;28;20583;-48
2024/03/13 05:14:37;;;;;;;38.20;19.88;;;3.00;99.90;;;;;;4967057;28;20452;-52
2024/03/13 05:17:04;;;;;;;34.70;20.40;;;2.90;99.90;;;;;;4963984;28;20050;-50
2024/03/13 05:19:30;;;;;;;34.50;19.58;;;3.00;99.90;;;;;;4961078;28;20491;-51
2024/03/13 05:21:57;;;;;;;36.80;19.15;;;3.00;99.90;;;;;;4962994;28;21275;-52
2024/03/13 05:24:23;;;;;;;35.08;18.63;;;3.00;99.90;;;;;;4963493;28;20093;-49
2024/03/13 05:26:50;;;;;;;35.60;18.63;;;3.00;99.90;;;;;;4958547;28;20105;-49
2024/03/13 05:29:15;;;;;;;33.67;18.27;;;3.00;99.90;;;;;;4968338;28;20040;-50
2024/03/13 05:31:41;;;;;;;35.78;19.50;;;2.90;99.90;;;;;;4960830;28;20031;-49
2024/03/13 05:34:09;;;;;;;31.70;18.73;;;2.90;99.90;;;;;;4965037;28;20551;-51
2024/03/13 05:36:36;;;;;;;33.50;18.70;;;2.90;99.90;;;;;;4961985;28;20035;-49
2024/03/13 05:39:02;;;;;;;34.47;18.98;;;2.90;99.90;;;;;;4962554;28;20031;-52
2024/03/13 05:41:27;;;;;;;35.15;18.23;;;2.90;99.90;;;;;;4961469;28;20104;-50
2024/03/13 05:43:53;;;;;;;41.75;20.05;;;2.90;99.90;;;;;;4964529;28;20035;-51
2024/03/13 05:46:18;;;;;;;39.80;20.77;;;2.90;99.90;;;;;;4962847;28;20034;-53
2024/03/13 05:48:47;;;;;;;32.28;19.17;;;2.90;99.90;;;;;;4963939;28;20039;-51
2024/03/13 05:51:12;;;;;;;35.35;19.95;;;2.90;99.90;;;;;;4965576;28;20076;-53
2024/03/13 05:53:38;;;;;;;37.30;19.65;;;2.90;99.90;;;;;;4961670;28;20632;-52
2024/03/13 05:56:05;;;;;;;37.13;20.25;;;2.90;99.90;;;;;;4963913;28;20046;-53
2024/03/13 05:58:30;;;;;;;34.80;19.08;;;2.90;99.90;;;;;;4965017;28;20415;-52
2024/03/13 06:00:56;;;;;;;43.33;20.77;;;2.90;99.90;;;;;;4959534;28;20041;-52
2024/03/13 06:03:21;;;;;;;39.10;20.55;;;2.90;99.90;;;;;;4959402;28;20031;-53
2024/03/13 06:05:47;;;;;;;39.33;20.77;;;2.90;99.90;;;;;;4962637;28;20043;-52
2024/03/13 06:08:13;;;;;;;40.33;20.73;;;2.90;99.90;;;;;;4966057;28;20037;-52
2024/03/13 06:10:39;;;;;;;41.50;20.38;;;2.90;99.90;;;;;;4963862;28;20031;-53
2024/03/13 06:13:05;;;;;;;40.80;20.38;;;2.90;99.90;;;;;;4964213;28;20055;-52
2024/03/13 06:15:30;;;;;;;39.30;21.00;;;3.00;99.90;;;;;;4963586;28;20040;-53
2024/03/13 06:17:56;;;;;;;35.25;20.23;;;3.00;99.90;;;;;;4964895;28;20527;-52
2024/03/13 06:20:22;;;;;;;43.05;22.45;;;3.00;99.90;;;;;;4965194;28;20047;-50
2024/03/13 06:22:48;;;;;;;40.97;21.17;;;3.00;99.90;;;;;;4965046;28;20041;-52
2024/03/13 06:25:14;;;;;;;37.22;20.73;;;3.00;99.90;;;;;;4963527;28;20042;-54
2024/03/13 06:27:40;;;;;;;39.95;21.35;;;3.00;99.90;;;;;;4963130;28;20503;-50
2024/03/13 06:30:08;;;;;;;39.70;21.25;;;3.10;99.90;;;;;;4958747;28;20047;-51
2024/03/13 06:32:35;;;;;;;47.10;22.13;;;3.10;99.90;;;;;;4961009;28;20058;-49
2024/03/13 06:35:02;;;;;;;49.92;23.88;;;3.10;99.90;;;;;;4962713;28;20045;-51
2024/03/13 06:37:28;;;;;;;45.65;21.30;;;3.20;99.90;;;;;;4962712;28;20031;-51
2024/03/13 06:39:54;;;;;;;46.53;21.98;;;3.20;99.90;;;;;;4963311;28;20110;-50
2024/03/13 06:42:20;;;;;;;38.40;22.23;;;3.20;99.90;;;;;;4962957;28;20535;-51
2024/03/13 06:44:47;;;;;;;41.00;20.92;;;3.30;99.90;;;;;;4967180;28;20027;-52
2024/03/13 06:47:12;;;;;;;47.67;22.75;;;3.30;99.90;;;;;;4966559;28;20034;-52
2024/03/13 06:49:39;;;;;;;41.03;21.33;;;3.30;99.90;;;;;;4963322;28;20081;-52
2024/03/13 06:52:12;;;;;;;42.72;22.52;;;3.30;99.90;;;;;;4966871;28;20729;-50
2024/03/13 06:54:38;;;;;;;38.97;22.15;;;3.30;99.90;;;;;;4965138;28;20902;-54
2024/03/13 06:57:04;;;;;;;43.35;20.80;;;3.40;99.90;;;;;;4967277;28;20125;-51
2024/03/13 06:59:29;;;;;;;45.42;21.80;;;3.40;99.90;;;;;;4963894;28;20149;-53
2024/03/13 07:01:55;;;;;;;37.75;20.77;;;3.40;99.90;;;;;;4964855;28;20085;-52
2024/03/13 07:04:22;;;;;;;47.83;21.35;;;3.50;99.90;;;;;;4964155;28;20031;-52
2024/03/13 07:06:48;;;;;;;42.72;22.38;;;3.60;99.90;;;;;;4967291;28;20069;-52
2024/03/13 07:09:14;;;;;;;49.50;22.90;;;3.60;99.90;;;;;;4965596;28;20411;-52
2024/03/13 07:11:40;;;;;;;45.05;23.02;;;3.60;99.90;;;;;;4969696;28;20041;-51
2024/03/13 07:14:11;;;;;;;44.25;21.77;;;3.70;99.90;;;;;;4967101;28;20034;-53
2024/03/13 07:16:37;;;;;;;46.75;20.80;;;3.80;99.90;;;;;;4968106;28;20118;-50
2024/03/13 07:19:07;;;;;;;46.03;22.55;;;3.80;99.90;;;;;;4964534;28;20146;-52
2024/03/13 07:21:33;;;;;;;52.00;24.58;;;3.80;99.90;;;;;;4964347;28;20035;-49
2024/03/13 07:23:59;;;;;;;51.55;24.35;;;3.90;99.90;;;;;;4966229;28;20402;-51
2024/03/13 07:26:26;;;;;;;48.97;23.15;;;4.00;99.90;;;;;;4963145;28;20051;-50
2024/03/13 07:28:51;;;;;;;44.40;22.73;;;4.00;99.90;;;;;;4966453;28;20542;-52
2024/03/13 07:31:17;;;;;;;42.42;22.45;;;4.10;99.90;;;;;;4964185;28;20085;-49
2024/03/13 07:33:42;;;;;;;47.97;24.63;;;4.20;99.90;;;;;;4967400;28;20038;-50
2024/03/13 07:36:08;;;;;;;52.55;25.05;;;4.20;99.90;;;;;;4965871;28;20030;-51
2024/03/13 07:38:36;;;;;;;53.10;24.35;;;4.30;99.90;;;;;;4967187;28;20069;-51
2024/03/13 07:41:02;;;;;;;52.08;25.35;;;4.40;99.90;;;;;;4968070;28;20101;-51
2024/03/13 07:43:30;;;;;;;56.35;25.98;;;4.50;99.90;;;;;;4962419;28;20133;-50
2024/03/13 07:45:57;;;;;;;49.03;25.23;;;4.60;99.90;;;;;;4967093;28;20038;-51
2024/03/13 07:48:23;;;;;;;53.83;26.42;;;4.70;99.90;;;;;;4961689;28;20506;-53
2024/03/13 07:50:48;;;;;;;49.33;24.92;;;4.80;99.90;;;;;;4965308;28;20023;-54
2024/03/13 07:53:14;;;;;;;49.85;22.85;;;5.00;99.90;;;;;;4963930;28;20070;-50
2024/03/13 07:55:39;;;;;;;53.80;26.08;;;5.10;99.90;;;;;;4964707;28;20058;-50
2024/03/13 07:58:05;;;;;;;53.13;25.77;;;5.20;99.90;;;;;;4961457;28;20093;-51
2024/03/13 08:00:35;;;;;;;47.80;24.67;;;5.30;99.90;;;;;;4964138;28;20086;-52
2024/03/13 08:03:01;;;;;;;53.42;23.92;;;5.40;99.90;;;;;;4964923;28;20097;-52
2024/03/13 08:05:26;;;;;;;55.40;24.05;;;5.60;99.90;;;;;;4964598;28;20027;-52
2024/03/13 08:07:52;;;;;;;48.78;23.27;;;5.70;99.90;;;;;;4964871;28;20025;-49
2024/03/13 08:10:19;;;;;;;45.90;23.88;;;5.80;99.90;;;;;;4964645;28;20487;-55
2024/03/13 08:12:45;;;;;;;48.42;24.05;;;5.90;99.90;;;;;;4962389;28;20173;-52
2024/03/13 08:15:11;;;;;;;58.45;25.65;;;6.00;99.90;;;;;;4965669;28;20026;-52
2024/03/13 08:17:37;;;;;;;55.00;24.70;;;6.20;99.90;;;;;;4964000;28;20510;-51
2024/03/13 08:20:06;;;;;;;48.03;24.63;;;6.30;99.90;;;;;;4965119;28;20059;-51
2024/03/13 08:22:32;;;;;;;52.03;24.60;;;6.50;99.90;;;;;;4965588;28;20050;-50
2024/03/13 08:24:58;;;;;;;55.45;25.63;;;6.70;99.90;;;;;;4964490;28;20030;-52
2024/03/13 08:27:24;;;;;;;48.10;24.00;;;6.80;99.90;;;;;;4962384;28;20030;-52
2024/03/13 08:29:49;;;;;;;38.40;21.98;;;6.90;99.90;;;;;;4961195;28;20122;-49
2024/03/13 08:32:15;;;;;;;44.55;20.90;;;7.00;99.90;;;;;;4965331;28;20097;-50
2024/03/13 08:34:43;;;;;;;40.70;21.95;;;7.10;99.90;;;;;;4963962;28;20442;-54
2024/03/13 08:37:10;;;;;;;33.55;18.73;;;7.20;99.90;;;;;;4963025;28;20062;-51
2024/03/13 08:39:36;;;;;;;32.53;18.58;;;7.30;99.90;;;;;;4963557;28;20071;-54
2024/03/13 08:42:01;;;;;;;32.95;18.25;;;7.40;99.90;;;;;;4965379;28;20039;-51
2024/03/13 08:44:29;;;;;;;29.52;17.85;;;7.50;99.90;;;;;;4963056;28;20039;-53
2024/03/13 08:46:55;;;;;;;31.17;17.38;;;7.60;99.90;;;;;;4961708;28;20555;-50
2024/03/13 08:49:20;;;;;;;27.55;16.98;;;7.70;99.90;;;;;;4964199;28;20026;-49
2024/03/13 08:51:46;;;;;;;29.70;17.73;;;7.80;99.90;;;;;;4962563;28;20491;-51
2024/03/13 08:54:11;;;;;;;29.55;17.45;;;7.90;99.90;;;;;;4966443;28;20034;-53
2024/03/13 08:56:42;;;;;;;26.98;15.93;;;8.00;99.90;;;;;;4959196;28;20093;-53
2024/03/13 08:59:07;;;;;;;27.20;15.93;;;8.10;99.90;;;;;;4965078;28;20050;-52
2024/03/13 09:01:42;;;;;;;29.13;17.45;;;8.20;99.90;;;;;;4961568;28;20069;-52
2024/03/13 09:04:09;;;;;;;29.08;16.20;;;8.30;99.90;;;;;;4964327;28;20050;-52
2024/03/13 09:06:36;;;;;;;27.50;16.23;;;8.40;99.90;;;;;;4965704;28;20503;-51
2024/03/13 09:09:04;;;;;;;29.92;16.45;;;8.50;99.90;;;;;;4968191;28;20231;-52
2024/03/13 09:11:30;;;;;;;26.55;15.40;;;8.50;99.90;;;;;;4961003;28;20035;-52
2024/03/13 09:14:04;;;;;;;26.80;15.50;;;8.60;99.90;;;;;;4965315;28;20030;-50
2024/03/13 09:16:35;;;;;;;27.90;15.18;;;8.60;99.90;;;;;;4965057;28;20035;-51
2024/03/13 09:19:01;;;;;;;31.55;16.55;;;8.70;99.90;;;;;;4966467;28;20062;-51
2024/03/13 09:21:26;;;;;;;26.58;17.35;;;8.80;99.90;;;;;;4963257;28;20046;-51
2024/03/13 09:23:52;;;;;;;29.83;16.55;;;8.80;99.90;;;;;;4965110;28;20253;-52
2024/03/13 09:26:18;;;;;;;27.42;15.68;;;8.90;99.90;;;;;;4962872;28;20018;-53
2024/03/13 09:28:46;;;;;;;26.75;16.58;;;9.00;99.90;;;;;;4964038;28;20022;-52
2024/03/13 09:31:12;;;;;;;25.65;16.27;;;9.10;99.90;;;;;;4960757;28;20055;-50
2024/03/13 09:33:37;;;;;;;27.65;15.43;;;9.10;99.90;;;;;;4966287;28;20030;-50
2024/03/13 09:36:12;;;;;;;23.38;14.90;;;9.30;99.90;;;;;;4961384;28;20046;-52
2024/03/13 09:38:40;;;;;;;24.90;14.30;;;9.30;99.90;;;;;;4963971;28;20038;-50
2024/03/13 09:41:06;;;;;;;26.17;15.25;;;9.40;99.90;;;;;;4960476;28;20058;-52
2024/03/13 09:43:32;;;;;;;27.38;15.15;;;9.40;99.90;;;;;;4963584;28;20082;-52
2024/03/13 09:45:58;;;;;;;27.20;15.65;;;9.40;99.90;;;;;;4962160;28;20114;-51
2024/03/13 09:48:25;;;;;;;23.60;14.32;;;9.50;99.90;;;;;;4961133;28;20082;-52
2024/03/13 09:50:53;;;;;;;23.20;14.30;;;9.50;99.90;;;;;;4961853;28;20034;-51
2024/03/13 09:53:21;;;;;;;23.73;16.17;;;9.70;99.90;;;;;;4962240;28;20026;-50
2024/03/13 09:55:47;;;;;;;25.77;15.23;;;9.80;99.90;;;;;;4964641;28;20073;-52
2024/03/13 09:58:15;;;;;;;26.63;14.48;;;9.90;99.90;;;;;;4962161;28;20118;-51
2024/03/13 10:00:41;;;;;;;21.00;14.35;;;10.00;99.90;;;;;;4961306;28;20602;-53
2024/03/13 10:03:21;;;;;;;25.92;14.30;;;10.10;99.90;;;;;;4966838;28;20023;-51
2024/03/13 10:05:49;;;;;;;25.17;14.10;;;10.20;99.90;;;;;;4878301;28;20032;-51
2024/03/13 10:08:18;;;;;;;23.25;14.57;;;10.30;99.90;;;;;;4927081;28;20062;-59
2024/03/13 10:10:45;;;;;;;23.15;15.00;;;10.30;99.90;;;;;;4908140;28;20019;-50
2024/03/13 10:13:13;;;;;;;19.63;12.88;;;10.30;99.90;;;;;;4877498;28;20035;-52
2024/03/13 10:15:40;;;;;;;21.67;12.75;;;10.40;99.90;;;;;;4930420;28;20239;-59
2024/03/13 10:18:20;;;;;;;20.60;12.77;;;10.30;99.90;;;;;;4900631;28;20438;-51
2024/03/13 10:20:58;;;;;;;21.65;13.23;;;10.40;99.90;;;;;;4880981;28;20026;-54
2024/03/13 10:23:26;;;;;;;19.15;11.82;;;10.40;99.90;;;;;;4875007;28;20027;-54
2024/03/13 10:25:54;;;;;;;22.30;13.15;;;10.50;99.90;;;;;;4928340;28;20053;-53
2024/03/13 10:28:23;;;;;;;22.08;12.98;;;10.50;99.90;;;;;;4878817;28;20558;-54
2024/03/13 10:30:51;;;;;;;18.48;11.35;;;10.60;99.90;;;;;;4884618;28;20483;-58
2024/03/13 10:33:17;;;;;;;20.27;12.32;;;10.70;99.90;;;;;;4935443;28;20023;-53
2024/03/13 10:35:42;;;;;;;19.42;12.45;;;10.70;99.90;;;;;;4904540;23;20446;-45
2024/03/13 10:38:14;;;;;;;23.27;13.30;;;10.90;99.90;;;;;;4943151;28;20022;-45
2024/03/13 10:40:41;;;;;;;19.40;12.25;;;11.00;99.90;;;;;;4915403;28;20876;-45
2024/03/13 10:43:10;;;;;;;20.35;12.68;;;11.10;99.90;;;;;;4909765;28;21164;-47
2024/03/13 10:45:37;;;;;;;19.15;11.82;;;11.10;99.90;;;;;;4970351;28;20030;-48
2024/03/13 10:48:06;;;;;;;17.88;11.57;;;11.20;99.90;;;;;;4917846;28;20021;-47
2024/03/13 10:50:31;;;;;;;14.40;10.07;;;11.30;99.90;;;;;;4923301;28;20057;-48
2024/03/13 10:52:57;;;;;;;16.80;10.88;;;11.20;99.90;;;;;;4942452;28;20034;-47
2024/03/13 10:55:28;;;;;;;16.02;9.57;;;11.20;99.90;;;;;;4908870;28;20675;-48
2024/03/13 10:57:54;;;;;;;17.73;10.77;;;11.20;99.90;;;;;;4909309;28;20482;-45
2024/03/13 11:00:22;;;;;;;15.88;10.50;;;11.20;99.90;;;;;;4971625;28;20037;-45
2024/03/13 11:02:49;;;;;;;15.50;10.73;;;11.20;99.90;;;;;;4914623;28;20025;-46
2024/03/13 11:05:16;;;;;;;16.60;11.10;;;11.20;99.90;;;;;;4939715;28;20033;-50
2024/03/13 11:07:42;;;;;;;17.38;10.98;;;11.20;99.90;;;;;;4924462;28;20030;-47
2024/03/13 11:10:18;;;;;;;17.80;11.68;;;11.20;99.90;;;;;;4902927;28;21405;-47
2024/03/13 11:12:45;;;;;;;16.52;10.68;;;11.20;99.90;;;;;;4933352;28;20494;-55
2024/03/13 11:15:18;;;;;;;15.05;10.40;;;11.20;99.90;;;;;;4942444;28;20056;-45
2024/03/13 11:17:51;;;;;;;15.18;10.55;;;11.20;99.90;;;;;;4894939;28;20545;-48
2024/03/13 11:20:21;;;;;;;14.52;10.55;;;11.30;99.90;;;;;;4927896;28;20033;-54
2024/03/13 11:22:54;;;;;;;17.42;10.80;;;11.40;99.90;;;;;;4959612;28;20118;-46
2024/03/13 11:25:21;;;;;;;16.58;10.77;;;11.50;99.90;;;;;;4936701;28;20040;-48
2024/03/13 11:27:55;;;;;;;17.60;9.73;;;11.60;99.90;;;;;;4941912;28;20018;-55
2024/03/13 11:30:21;;;;;;;16.30;10.70;;;11.70;99.90;;;;;;4957068;28;20037;-45
2024/03/13 11:32:48;;;;;;;14.35;9.57;;;11.70;99.90;;;;;;4923909;28;20026;-46
2024/03/13 11:35:16;;;;;;;13.38;9.57;;;11.80;99.90;;;;;;4974704;28;20512;-48
2024/03/13 11:37:44;;;;;;;14.50;10.23;;;11.80;99.90;;;;;;4942656;28;20030;-48
2024/03/13 11:40:11;;;;;;;13.52;8.45;;;11.90;99.90;;;;;;4953960;28;20036;-45
2024/03/13 11:42:37;;;;;;;11.68;8.88;;;11.90;99.90;;;;;;4950651;28;20107;-47
2024/03/13 11:45:15;;;;;;;13.02;9.40;;;11.80;99.90;;;;;;4912527;28;20116;-47
2024/03/13 11:47:47;;;;;;;11.15;8.07;;;11.90;99.90;;;;;;4931908;28;22086;-45
2024/03/13 11:50:13;;;;;;;12.18;8.13;;;12.00;99.90;;;;;;4966163;28;20072;-47
2024/03/13 11:53:01;;;;;;;10.60;7.85;;;12.10;99.90;;;;;;4900808;28;20034;-55
2024/03/13 11:55:30;;;;;;;15.23;8.55;;;12.10;99.90;;;;;;4925191;28;20041;-46
2024/03/13 11:58:18;;;;;;;12.75;8.05;;;12.10;99.90;;;;;;4935374;28;20557;-45
2024/03/13 12:00:45;;;;;;;15.43;8.68;;;12.20;99.90;;;;;;4941829;28;20034;-54
2024/03/13 12:03:14;;;;;;;11.13;8.35;;;12.20;99.90;;;;;;4925198;28;20022;-48
2024/03/13 12:05:40;;;;;;;13.00;8.10;;;12.10;99.90;;;;;;4928422;28;20952;-46
2024/03/13 12:08:08;;;;;;;12.25;8.38;;;12.10;99.90;;;;;;4928767;28;20056;-48
2024/03/13 12:10:34;;;;;;;12.57;8.07;;;12.10;99.90;;;;;;4946951;28;20149;-48
2024/03/13 12:13:00;;;;;;;11.90;8.18;;;12.20;99.90;;;;;;4916615;28;20118;-45
2024/03/13 12:15:27;;;;;;;10.55;7.82;;;12.20;99.90;;;;;;4943290;28;20034;-48
2024/03/13 12:17:55;;;;;;;10.10;7.55;;;12.30;99.90;;;;;;4906868;28;20064;-46
2024/03/13 12:20:22;;;;;;;13.18;7.82;;;12.30;99.90;;;;;;4943548;28;20543;-54
2024/03/13 12:22:49;;;;;;;13.02;9.20;;;12.30;99.90;;;;;;4951934;28;20538;-44
2024/03/13 12:25:15;;;;;;;11.25;8.68;;;12.40;99.90;;;;;;4900995;28;20442;-48
2024/03/13 12:27:45;;;;;;;13.73;9.15;;;12.40;99.90;;;;;;4940887;28;20018;-46
2024/03/13 12:30:11;;;;;;;15.80;10.88;;;12.40;99.90;;;;;;4918212;28;20022;-46
2024/03/13 12:32:37;;;;;;;31.08;20.90;;;12.40;99.90;;;;;;4911236;28;21441;-47
2024/03/13 12:35:10;;;;;;;35.72;23.13;;;12.50;99.90;;;;;;4940581;28;20066;-46
2024/03/13 12:37:35;;;;;;;28.55;16.98;;;12.50;99.90;;;;;;4935164;28;20646;-45
2024/03/13 12:40:11;;;;;;;12.57;8.65;;;12.50;99.90;;;;;;4901507;28;20028;-46
2024/03/13 12:42:37;;;;;;;21.10;14.93;;;12.50;99.90;;;;;;4951774;28;20041;-43
2024/03/13 12:45:04;;;;;;;11.82;8.75;;;12.50;99.90;;;;;;4977021;28;20145;-46
2024/03/13 12:47:34;;;;;;;12.02;8.63;;;12.60;99.90;;;;;;4964076;28;20044;-44
2024/03/13 12:50:00;;;;;;;13.50;9.75;;;12.50;99.90;;;;;;4983617;28;21142;-47
2024/03/13 12:52:29;;;;;;;15.07;8.95;;;12.50;99.90;;;;;;4980370;28;20061;-50